Time;durP1;ratioP1;P1;durP2;ratioP2;P2;SDS_P1;SDS_P2;PMS_P1;PMS_P2;Temp;Humidity;BMP_temperature;BMP_pressure;BME280_temperature;BME280_humidity;BME280_pressure;Samples;Min_cycle;Max_cycle;Signal;HPM_P1;HPM_P2
2022/07/31 00:00:18;;;;;;;6.10;5.50;;;;;;;18.10;100.00;99791.88;5073631;28;20047;-79
2022/07/31 00:02:43;;;;;;;6.40;5.70;;;;;;;18.00;100.00;99786.91;5075158;28;20535;-79
2022/07/31 00:05:09;;;;;;;5.90;5.25;;;;;;;18.05;100.00;99780.56;5073365;28;20044;-79
2022/07/31 00:07:35;;;;;;;6.57;5.97;;;;;;;17.99;100.00;99780.53;5085438;28;20125;-79
2022/07/31 00:10:02;;;;;;;6.10;5.25;;;;;;;18.02;100.00;99779.53;5086645;28;20569;-79
2022/07/31 00:12:27;;;;;;;6.38;5.63;;;;;;;17.99;100.00;99788.19;5089579;28;20044;-79
2022/07/31 00:14:53;;;;;;;6.38;5.50;;;;;;;17.99;100.00;99791.75;5074551;28;20054;-82
2022/07/31 00:17:19;;;;;;;6.63;5.80;;;;;;;17.95;100.00;99790.44;5070182;28;20041;-82
2022/07/31 00:19:44;;;;;;;7.32;5.45;;;;;;;17.94;100.00;99769.25;5077142;28;20051;-82
2022/07/31 00:22:11;;;;;;;5.20;4.70;;;;;;;17.86;100.00;99770.94;5092780;28;20557;-82
2022/07/31 00:24:36;;;;;;;5.35;4.85;;;;;;;17.77;100.00;99771.09;5090848;28;20039;-82
2022/07/31 00:27:03;;;;;;;6.28;5.00;;;;;;;17.76;100.00;99772.34;5092812;28;20052;-82
2022/07/31 00:29:29;;;;;;;6.25;5.63;;;;;;;17.63;100.00;99776.28;5073494;28;20131;-82
2022/07/31 00:31:55;;;;;;;6.22;5.07;;;;;;;17.69;100.00;99785.53;5091400;28;20036;-82
2022/07/31 00:34:21;;;;;;;6.40;5.80;;;;;;;17.51;100.00;99780.19;5092400;28;20044;-82
2022/07/31 01:03:22;;;;;;;8.85;6.30;;;;;;;17.60;100.00;99788.50;5269728;22;20044;-86
2022/07/31 01:05:48;;;;;;;6.22;5.40;;;;;;;17.61;100.00;99784.44;5033927;28;20109;-86
2022/07/31 01:08:14;;;;;;;6.60;6.00;;;;;;;17.64;100.00;99783.44;5031737;28;20045;-85
2022/07/31 01:10:48;;;;;;;6.25;5.68;;;;;;;17.61;100.00;99787.22;5049247;28;20093;-85
2022/07/31 01:13:21;;;;;;;6.80;6.10;;;;;;;17.54;100.00;99793.25;5026956;28;20045;-84
2022/07/31 01:15:47;;;;;;;6.88;5.90;;;;;;;17.56;100.00;99787.13;5049011;28;20032;-84
2022/07/31 01:18:13;;;;;;;6.68;5.95;;;;;;;17.65;100.00;99789.81;5036051;28;20041;-84
2022/07/31 01:20:41;;;;;;;5.97;5.38;;;;;;;17.70;100.00;99792.69;5048767;28;20502;-84
2022/07/31 01:23:26;;;;;;;6.25;5.65;;;;;;;17.71;100.00;99788.63;5016948;28;20033;-84
2022/07/31 01:26:36;;;;;;;6.75;5.68;;;;;;;17.68;100.00;99789.59;5024793;28;20037;-84
2022/07/31 01:29:13;;;;;;;7.43;6.00;;;;;;;17.74;100.00;99786.09;5051822;28;20503;-84
2022/07/31 01:31:45;;;;;;;6.93;5.85;;;;;;;17.80;100.00;99792.53;5065806;28;20559;-84
2022/07/31 01:34:37;;;;;;;6.35;5.75;;;;;;;17.77;100.00;99779.50;5032420;28;20036;-84
2022/07/31 01:37:57;;;;;;;6.43;5.75;;;;;;;17.77;100.00;99790.72;5037934;28;20093;-80
2022/07/31 01:40:42;;;;;;;5.55;4.97;;;;;;;17.75;100.00;99794.03;5015101;28;20501;-80
2022/07/31 01:43:14;;;;;;;5.72;4.72;;;;;;;17.62;100.00;99780.38;5034077;28;20045;-80
2022/07/31 01:45:42;;;;;;;5.28;4.78;;;;;;;17.67;100.00;99802.09;5029360;28;20071;-80
2022/07/31 01:48:13;;;;;;;7.55;4.55;;;;;;;17.74;100.00;99794.53;5063746;28;20049;-80
2022/07/31 01:50:41;;;;;;;5.20;4.35;;;;;;;17.77;100.00;99801.94;5032773;28;20517;-80
2022/07/31 01:53:07;;;;;;;7.07;5.20;;;;;;;17.74;100.00;99791.72;5051322;28;20044;-80
2022/07/31 01:55:33;;;;;;;5.35;4.68;;;;;;;17.80;100.00;99796.13;5014674;28;20619;-80
2022/07/31 01:58:00;;;;;;;6.20;5.20;;;;;;;17.87;100.00;99794.94;5044385;28;20510;-80
2022/07/31 02:00:26;;;;;;;7.25;5.07;;;;;;;17.87;100.00;99790.09;5044254;28;20102;-80
2022/07/31 02:02:52;;;;;;;6.25;5.20;;;;;;;17.91;100.00;99789.88;5036665;28;20428;-79
2022/07/31 02:05:18;;;;;;;6.03;5.43;;;;;;;17.95;100.00;99784.81;5048921;28;20063;-79
2022/07/31 02:07:46;;;;;;;5.70;4.75;;;;;;;17.96;100.00;99791.94;5030843;28;20036;-79
2022/07/31 02:10:13;;;;;;;6.40;4.90;;;;;;;17.91;100.00;99789.88;5032428;28;20094;-80
2022/07/31 02:12:42;;;;;;;6.28;4.72;;;;;;;17.79;100.00;99793.81;5036852;28;20037;-80
2022/07/31 02:15:10;;;;;;;6.50;4.68;;;;;;;17.79;100.00;99800.22;5047410;28;20136;-80
2022/07/31 02:17:39;;;;;;;5.60;5.05;;;;;;;17.84;100.00;99798.69;5053310;28;20036;-83
2022/07/31 02:20:26;;;;;;;5.15;4.65;;;;;;;17.79;100.00;99802.25;5066651;28;20040;-84
2022/07/31 02:22:54;;;;;;;5.93;5.30;;;;;;;17.75;100.00;99804.47;5048781;28;20040;-84
2022/07/31 02:25:20;;;;;;;5.63;5.05;;;;;;;17.69;100.00;99802.38;5082083;28;20102;-84
2022/07/31 02:27:46;;;;;;;8.07;4.90;;;;;;;17.65;100.00;99801.81;5031225;28;20120;-83
2022/07/31 02:30:12;;;;;;;6.30;5.43;;;;;;;17.67;100.00;99799.28;5056903;28;20485;-84
2022/07/31 02:32:38;;;;;;;5.72;4.97;;;;;;;17.59;100.00;99798.16;5049331;28;20409;-83
2022/07/31 02:35:05;;;;;;;5.93;5.25;;;;;;;17.57;100.00;99777.44;5046507;28;20051;-84
2022/07/31 02:37:32;;;;;;;8.00;5.30;;;;;;;17.53;100.00;99800.09;5050773;28;20443;-84
2022/07/31 02:39:59;;;;;;;8.80;5.00;;;;;;;17.47;100.00;99790.84;5060023;28;20463;-84
2022/07/31 02:42:25;;;;;;;7.97;4.97;;;;;;;17.45;100.00;99793.38;5036877;28;20037;-84
2022/07/31 02:44:51;;;;;;;5.63;4.88;;;;;;;17.45;100.00;99793.38;5049058;28;20041;-84
2022/07/31 02:47:19;;;;;;;6.45;4.95;;;;;;;17.42;100.00;99797.16;5065105;28;20048;-83
2022/07/31 02:49:45;;;;;;;5.10;4.60;;;;;;;17.42;100.00;99787.97;5064894;28;20044;-84
2022/07/31 02:52:14;;;;;;;7.70;5.10;;;;;;;17.41;100.00;99798.41;5064622;28;20090;-83
2022/07/31 02:54:41;;;;;;;5.25;4.70;;;;;;;17.36;100.00;99796.31;5065634;28;20037;-84
2022/07/31 02:57:06;;;;;;;6.25;4.95;;;;;;;17.32;100.00;99784.53;5049534;28;20095;-85
2022/07/31 02:59:37;;;;;;;5.60;5.10;;;;;;;17.29;100.00;99785.50;5063807;28;20557;-84
2022/07/31 03:02:03;;;;;;;6.05;5.40;;;;;;;17.28;100.00;99789.56;5046380;28;20036;-84
2022/07/31 03:04:30;;;;;;;5.88;5.18;;;;;;;17.12;100.00;99782.47;5030402;28;20040;-84
2022/07/31 03:06:56;;;;;;;5.32;4.82;;;;;;;17.06;100.00;99784.44;5047294;28;20036;-84
2022/07/31 03:09:22;;;;;;;6.80;4.88;;;;;;;17.10;100.00;99789.84;5049255;28;20495;-84
2022/07/31 03:11:56;;;;;;;6.65;4.80;;;;;;;17.02;100.00;99789.47;5046340;28;20090;-85
2022/07/31 03:14:23;;;;;;;5.45;4.95;;;;;;;17.01;100.00;99793.53;5032166;28;20032;-84
2022/07/31 03:16:49;;;;;;;6.38;4.90;;;;;;;17.04;100.00;99791.75;5066041;28;20036;-85
2022/07/31 03:19:15;;;;;;;5.43;4.93;;;;;;;17.05;100.00;99793.31;5049186;28;20056;-84
2022/07/31 03:21:40;;;;;;;5.90;4.90;;;;;;;17.06;100.00;99792.06;5052487;28;20028;-84
2022/07/31 03:24:06;;;;;;;5.63;4.97;;;;;;;17.04;100.00;99788.97;5065574;28;20140;-84
2022/07/31 03:26:32;;;;;;;5.75;5.13;;;;;;;17.07;100.00;99797.16;5046267;28;20033;-84
2022/07/31 03:29:01;;;;;;;5.53;5.03;;;;;;;17.06;100.00;99800.47;5042792;28;20124;-84
2022/07/31 03:31:27;;;;;;;5.35;4.85;;;;;;;16.99;100.00;99800.84;5063952;28;20025;-85
2022/07/31 03:33:53;;;;;;;6.47;4.85;;;;;;;16.96;100.00;99790.63;5064620;28;20032;-84
2022/07/31 03:36:18;;;;;;;6.85;5.43;;;;;;;16.85;100.00;99785.63;5064536;28;20068;-80
2022/07/31 03:38:44;;;;;;;5.70;5.10;;;;;;;16.89;100.00;99791.81;5066436;28;20513;-80
2022/07/31 03:41:22;;;;;;;5.90;5.13;;;;;;;16.82;100.00;99791.44;5064880;28;20127;-80
2022/07/31 03:43:49;;;;;;;5.65;5.10;;;;;;;16.80;100.00;99783.50;5066068;28;20445;-79
2022/07/31 03:46:20;;;;;;;6.53;5.18;;;;;;;16.77;100.00;99776.88;5051665;28;20045;-80
2022/07/31 03:48:46;;;;;;;6.38;5.15;;;;;;;16.79;100.00;99785.53;5037700;28;20068;-79
2022/07/31 03:51:13;;;;;;;5.63;5.00;;;;;;;16.81;100.00;99787.09;5064972;28;20040;-84
2022/07/31 03:53:39;;;;;;;5.15;4.55;;;;;;;16.84;99.46;99786.13;5071228;28;20044;-79
2022/07/31 03:56:06;;;;;;;5.47;4.97;;;;;;;16.86;99.12;99775.97;5050288;28;20091;-80
2022/07/31 03:58:33;;;;;;;5.25;4.75;;;;;;;16.88;98.96;99767.06;5063898;28;20036;-80
2022/07/31 04:00:59;;;;;;;6.05;4.60;;;;;;;16.89;98.90;99777.03;5062315;28;20036;-80
2022/07/31 04:03:29;;;;;;;5.90;4.63;;;;;;;16.89;99.27;99768.63;5052699;28;20531;-80
2022/07/31 04:06:15;;;;;;;6.43;4.72;;;;;;;16.86;98.41;99769.59;5069990;28;20131;-79
2022/07/31 04:08:40;;;;;;;5.65;5.13;;;;;;;16.82;98.34;99771.84;5069491;28;20596;-79
2022/07/31 04:11:06;;;;;;;6.40;4.70;;;;;;;16.82;98.88;99769.03;5072562;28;20039;-80
2022/07/31 04:13:32;;;;;;;5.00;4.50;;;;;;;16.74;98.73;99779.88;5049981;28;20391;-83
2022/07/31 04:15:57;;;;;;;5.72;5.07;;;;;;;16.72;98.77;99785.16;5049468;28;20032;-82
2022/07/31 04:18:23;;;;;;;8.13;4.97;;;;;;;16.73;98.46;99779.09;5036608;28;20421;-84
2022/07/31 04:20:48;;;;;;;7.10;4.85;;;;;;;16.70;98.33;99774.44;5034926;28;20383;-84
2022/07/31 04:23:14;;;;;;;5.35;4.82;;;;;;;16.72;97.09;99774.75;5067308;28;20054;-84
2022/07/31 04:26:11;;;;;;;5.40;4.90;;;;;;;16.73;97.72;99773.50;5031091;28;20048;-84
2022/07/31 04:28:40;;;;;;;5.35;4.43;;;;;;;16.78;96.45;99775.59;5070290;28;20102;-84
2022/07/31 04:31:06;;;;;;;6.20;4.50;;;;;;;16.81;95.74;99773.88;5047476;28;20608;-84
2022/07/31 04:33:38;;;;;;;5.45;4.95;;;;;;;16.87;96.61;99776.72;5034322;28;20061;-80
2022/07/31 04:36:03;;;;;;;5.55;4.63;;;;;;;16.92;94.93;99773.25;5069132;28;20485;-80
2022/07/31 04:38:29;;;;;;;5.13;4.22;;;;;;;17.07;93.01;99785.19;5066872;28;20041;-80
2022/07/31 04:40:55;;;;;;;6.18;4.50;;;;;;;17.12;92.07;99770.47;5070277;28;20039;-80
2022/07/31 04:43:20;;;;;;;5.20;4.70;;;;;;;17.18;92.02;99785.38;5071403;28;20044;-79
2022/07/31 04:45:46;;;;;;;4.85;4.03;;;;;;;17.27;91.88;99782.41;5068389;28;20059;-79
2022/07/31 04:48:12;;;;;;;5.35;3.78;;;;;;;17.40;90.04;99785.66;5067802;28;20561;-83
2022/07/31 04:50:37;;;;;;;4.30;3.90;;;;;;;17.47;89.70;99778.88;5049624;28;20086;-80
2022/07/31 04:53:03;;;;;;;6.50;4.80;;;;;;;17.54;90.19;99772.84;5033819;28;20108;-80
2022/07/31 04:55:34;;;;;;;4.72;4.20;;;;;;;17.60;88.31;99776.50;5067055;28;20118;-80
2022/07/31 04:58:00;;;;;;;5.38;3.88;;;;;;;17.67;87.03;99776.84;5066631;28;20064;-80
2022/07/31 05:00:26;;;;;;;4.35;3.80;;;;;;;17.80;87.61;99781.31;5048416;28;20053;-80
2022/07/31 05:02:52;;;;;;;4.65;4.15;;;;;;;17.97;83.19;99785.09;5067324;28;20128;-80
2022/07/31 05:05:18;;;;;;;4.60;4.00;;;;;;;18.08;84.04;99776.78;5065498;28;20048;-80
2022/07/31 05:07:45;;;;;;;6.20;3.60;;;;;;;18.14;81.53;99786.03;5048527;28;20417;-81
2022/07/31 05:13:03;;;;;;;4.68;3.95;;;;;;;18.53;78.78;99800.47;5059131;28;20122;-79
2022/07/31 05:15:31;;;;;;;4.90;4.00;;;;;;;18.75;77.90;99799.91;5083278;28;20051;-79
2022/07/31 05:17:57;;;;;;;6.72;3.80;;;;;;;18.89;75.16;99802.56;5066139;28;20083;-79
2022/07/31 05:20:41;;;;;;;5.28;4.05;;;;;;;19.04;73.71;99799.59;5060630;28;20350;-79
2022/07/31 05:23:25;;;;;;;4.20;3.80;;;;;;;19.25;73.60;99808.69;5062526;28;20060;-82
2022/07/31 05:26:12;;;;;;;4.57;3.60;;;;;;;19.43;72.84;99819.53;5064052;28;20040;-80
2022/07/31 05:28:37;;;;;;;5.68;3.67;;;;;;;19.57;71.01;99800.97;5032201;28;20040;-80
2022/07/31 05:31:05;;;;;;;4.28;3.88;;;;;;;19.73;71.50;99809.47;5060676;28;20513;-80
2022/07/31 05:33:31;;;;;;;4.68;3.55;;;;;;;19.91;69.88;99811.06;5048381;28;20127;-80
2022/07/31 05:35:57;;;;;;;4.10;3.30;;;;;;;19.99;69.71;99815.69;5054019;28;20083;-80
2022/07/31 05:38:24;;;;;;;3.78;3.38;;;;;;;20.14;69.22;99809.84;5052937;28;20409;-80
2022/07/31 05:41:08;;;;;;;4.38;3.60;;;;;;;20.26;68.70;99819.09;5047629;28;20044;-80
2022/07/31 05:43:54;;;;;;;4.18;3.50;;;;;;;20.31;67.45;99809.91;5064908;28;20045;-80
2022/07/31 05:46:23;;;;;;;4.60;3.92;;;;;;;20.44;67.39;99810.97;5063054;28;20057;-82
2022/07/31 05:48:49;;;;;;;5.30;3.33;;;;;;;20.57;67.30;99812.50;5051204;28;20055;-83
2022/07/31 05:51:14;;;;;;;5.03;3.40;;;;;;;20.74;66.72;99818.94;5067722;28;20033;-83
2022/07/31 05:53:41;;;;;;;4.80;3.75;;;;;;;20.90;65.42;99818.94;5050095;28;20393;-83
2022/07/31 05:56:26;;;;;;;4.85;3.45;;;;;;;20.95;65.84;99803.28;5052663;28;20053;-83
2022/07/31 05:58:54;;;;;;;5.05;3.97;;;;;;;21.05;65.68;99813.00;5052290;28;20065;-85
2022/07/31 06:01:20;;;;;;;6.07;3.95;;;;;;;21.08;64.82;99817.63;5048945;28;20064;-84
2022/07/31 06:03:46;;;;;;;4.10;3.65;;;;;;;21.42;63.82;99809.91;5031138;28;20433;-84
2022/07/31 06:06:16;;;;;;;4.22;3.47;;;;;;;21.50;63.31;99808.06;5053784;28;20436;-84
2022/07/31 06:08:42;;;;;;;4.35;3.55;;;;;;;21.31;63.22;99819.13;5065157;28;20041;-83
2022/07/31 06:11:08;;;;;;;5.28;3.50;;;;;;;21.45;63.24;99811.66;5064298;28;20051;-83
2022/07/31 06:13:35;;;;;;;4.07;3.30;;;;;;;21.59;61.84;99815.50;5039240;28;20064;-84
2022/07/31 06:16:13;;;;;;;4.20;3.47;;;;;;;21.79;61.59;99817.97;5036407;28;20128;-84
2022/07/31 06:18:39;;;;;;;4.53;3.20;;;;;;;21.70;60.38;99810.56;5044947;28;20048;-84
2022/07/31 06:21:04;;;;;;;4.05;3.40;;;;;;;21.91;61.67;99822.28;5042773;28;20036;-84
2022/07/31 06:23:30;;;;;;;4.70;3.38;;;;;;;22.14;60.68;99826.56;5058202;28;20040;-83
2022/07/31 06:26:05;;;;;;;4.10;3.35;;;;;;;22.31;58.57;99827.22;5040639;28;20051;-83
2022/07/31 06:28:30;;;;;;;4.30;3.50;;;;;;;22.38;58.38;99840.03;5060599;28;20036;-83
2022/07/31 06:30:56;;;;;;;5.40;3.13;;;;;;;22.54;57.97;99833.50;5079778;28;20044;-83
2022/07/31 06:33:22;;;;;;;3.60;2.80;;;;;;;22.30;57.55;99839.81;5053578;28;20048;-83
2022/07/31 06:35:47;;;;;;;4.57;3.22;;;;;;;22.47;57.37;99830.47;5060314;28;20120;-83
2022/07/31 06:38:36;;;;;;;4.80;3.20;;;;;;;22.60;58.38;99844.78;5072733;28;20553;-83
2022/07/31 06:41:48;;;;;;;4.50;3.30;;;;;;;22.74;56.44;99843.66;5055562;28;20036;-83
2022/07/31 06:44:30;;;;;;;4.95;3.15;;;;;;;22.70;55.58;99852.44;5062148;28;20505;-83
2022/07/31 06:47:15;;;;;;;3.65;2.80;;;;;;;22.66;54.23;99849.09;5049425;28;20051;-84
2022/07/31 06:49:59;;;;;;;6.43;3.38;;;;;;;22.71;56.54;99861.69;5058086;28;20122;-85
2022/07/31 06:52:27;;;;;;;6.75;3.28;;;;;;;22.77;55.15;99851.84;5027386;28;20045;-82
2022/07/31 06:54:53;;;;;;;3.72;2.80;;;;;;;22.61;55.64;99857.59;5026955;28;20071;-82
2022/07/31 06:57:19;;;;;;;5.45;3.53;;;;;;;22.78;55.48;99878.84;5041732;28;20408;-84
2022/07/31 06:59:45;;;;;;;4.30;3.10;;;;;;;22.64;54.99;99857.34;5060082;28;20040;-84
2022/07/31 07:02:11;;;;;;;5.65;3.13;;;;;;;22.70;54.39;99872.22;5058443;28;20048;-82
2022/07/31 07:04:36;;;;;;;5.43;3.20;;;;;;;22.93;54.26;99866.41;5058334;28;20052;-84
2022/07/31 07:07:03;;;;;;;3.42;3.10;;;;;;;23.01;54.65;99879.44;5043058;28;20454;-84
2022/07/31 07:09:29;;;;;;;3.35;3.00;;;;;;;23.06;53.82;99870.13;5062104;28;20028;-84
2022/07/31 07:11:55;;;;;;;4.07;3.00;;;;;;;23.13;53.56;99863.16;5039130;28;20086;-84
2022/07/31 07:14:21;;;;;;;5.40;3.13;;;;;;;23.30;53.69;99865.81;5043146;28;20123;-84
2022/07/31 07:16:47;;;;;;;4.15;3.00;;;;;;;23.21;53.63;99870.50;5055472;28;20139;-84
2022/07/31 07:19:12;;;;;;;8.32;3.40;;;;;;;23.35;53.68;99862.16;5041398;28;20036;-84
2022/07/31 07:21:38;;;;;;;4.63;2.90;;;;;;;23.45;52.21;99877.53;5074345;28;20049;-84
2022/07/31 07:24:04;;;;;;;4.45;3.00;;;;;;;23.38;53.25;99866.75;5043607;28;20083;-83
2022/07/31 07:26:47;;;;;;;3.42;2.72;;;;;;;23.34;52.02;99866.28;5063895;28;20442;-80
2022/07/31 07:29:13;;;;;;;5.60;2.85;;;;;;;23.40;50.92;99875.50;5032167;28;20136;-82
2022/07/31 07:31:39;;;;;;;2.92;2.50;;;;;;;23.53;50.93;99872.81;5059088;28;20033;-83
2022/07/31 07:34:07;;;;;;;2.92;2.50;;;;;;;23.42;49.73;99867.22;5047607;28;20052;-83
2022/07/31 07:36:34;;;;;;;3.78;2.70;;;;;;;23.41;49.57;99865.72;5043172;28;20040;-81
2022/07/31 07:39:08;;;;;;;3.83;2.50;;;;;;;23.45;50.15;99874.72;5046061;28;20510;-82
2022/07/31 07:41:34;;;;;;;5.03;2.38;;;;;;;23.63;49.65;99866.25;5045807;28;20051;-84
2022/07/31 07:44:00;;;;;;;4.07;2.80;;;;;;;23.57;49.36;99864.81;5044217;28;20105;-83
2022/07/31 07:46:28;;;;;;;3.30;2.60;;;;;;;23.77;49.65;99867.16;5047123;28;20409;-83
2022/07/31 07:48:59;;;;;;;4.03;2.50;;;;;;;23.88;48.90;99847.19;5032308;28;20075;-83
2022/07/31 07:51:35;;;;;;;4.45;2.70;;;;;;;24.13;48.56;99864.91;5043291;28;20127;-84
2022/07/31 07:54:39;;;;;;;3.38;2.50;;;;;;;24.34;47.86;99853.84;4984286;28;20113;-83
2022/07/31 07:57:21;;;;;;;3.88;2.60;;;;;;;24.32;46.66;99860.03;4977339;28;20100;-83
2022/07/31 07:59:53;;;;;;;3.72;2.88;;;;;;;24.48;47.39;99866.75;5032553;28;20437;-83
2022/07/31 08:02:37;;;;;;;4.35;2.53;;;;;;;24.69;46.02;99859.22;5067691;28;20052;-83
2022/07/31 08:05:05;;;;;;;3.47;2.45;;;;;;;24.45;46.17;99865.00;5020816;28;20048;-83
2022/07/31 08:07:34;;;;;;;3.20;2.50;;;;;;;24.52;45.72;99859.47;5033545;28;20041;-83
2022/07/31 08:10:01;;;;;;;3.25;2.40;;;;;;;24.86;46.32;99868.28;5023744;28;20064;-83
2022/07/31 08:12:46;;;;;;;3.85;2.30;;;;;;;24.99;46.52;99873.22;5047012;28;20072;-83
2022/07/31 08:15:15;;;;;;;4.15;2.13;;;;;;;25.13;44.87;99862.66;5010100;28;20436;-83
2022/07/31 08:17:59;;;;;;;6.05;2.40;;;;;;;24.99;43.60;99885.31;5019479;28;20063;-84
2022/07/31 08:20:26;;;;;;;3.05;2.47;;;;;;;25.06;42.78;99864.06;5029118;28;20056;-82
2022/07/31 08:22:52;;;;;;;3.95;2.30;;;;;;;25.12;44.39;99875.31;5008576;28;20537;-80
2022/07/31 08:25:18;;;;;;;2.85;2.38;;;;;;;24.78;43.67;99875.09;5032464;28;20052;-81
2022/07/31 08:27:44;;;;;;;4.07;2.28;;;;;;;24.89;44.04;99864.34;5014405;28;20037;-82
2022/07/31 08:30:10;;;;;;;5.25;2.55;;;;;;;24.97;44.19;99865.25;4997994;28;20029;-81
2022/07/31 08:32:37;;;;;;;5.00;2.10;;;;;;;25.15;43.67;99862.91;5011930;28;20037;-82
2022/07/31 08:35:19;;;;;;;3.92;2.17;;;;;;;25.01;42.72;99871.38;5027605;28;20133;-83
2022/07/31 08:37:45;;;;;;;3.90;2.50;;;;;;;24.76;43.04;99867.09;5000161;28;20408;-82
2022/07/31 08:40:11;;;;;;;3.70;2.35;;;;;;;24.84;43.21;99872.91;5021858;28;20499;-82
2022/07/31 08:42:36;;;;;;;3.78;2.30;;;;;;;24.93;43.53;99876.16;5049033;28;20064;-82
2022/07/31 08:45:07;;;;;;;6.07;2.63;;;;;;;25.11;42.21;99868.91;4988431;28;20127;-83
2022/07/31 08:47:35;;;;;;;4.70;2.25;;;;;;;25.33;42.50;99862.81;5021156;28;20044;-82
2022/07/31 08:50:13;;;;;;;2.92;2.40;;;;;;;25.33;42.28;99850.69;5019210;28;20052;-83
2022/07/31 08:52:39;;;;;;;3.33;2.30;;;;;;;25.51;41.23;99861.97;5020824;28;20497;-82
2022/07/31 08:55:14;;;;;;;3.80;2.20;;;;;;;25.61;40.85;99862.31;5020538;28;20052;-82
2022/07/31 08:57:41;;;;;;;3.47;2.20;;;;;;;25.71;40.90;99857.75;5011438;28;20041;-88
2022/07/31 09:00:11;;;;;;;2.92;2.28;;;;;;;25.75;39.41;99846.81;5007278;28;20041;-83
2022/07/31 09:02:39;;;;;;;5.07;2.20;;;;;;;25.43;39.38;99854.66;5010197;28;20124;-83
2022/07/31 09:05:37;;;;;;;4.22;2.22;;;;;;;25.74;40.43;99853.81;5045324;28;20041;-82
2022/07/31 09:08:04;;;;;;;4.20;2.13;;;;;;;25.78;39.25;99842.13;5038276;28;20525;-83
2022/07/31 09:10:29;;;;;;;3.28;2.22;;;;;;;26.00;37.87;99856.63;5042901;28;20040;-83
2022/07/31 09:12:55;;;;;;;4.00;2.47;;;;;;;26.30;38.48;99844.13;5026418;28;20025;-83
2022/07/31 09:15:28;;;;;;;4.85;2.50;;;;;;;26.35;38.33;99861.06;5043560;28;20482;-83
2022/07/31 09:17:55;;;;;;;7.80;2.47;;;;;;;25.96;37.98;99833.44;5043976;28;20063;-83
2022/07/31 09:20:26;;;;;;;2.80;2.40;;;;;;;26.25;37.54;99830.78;5060163;28;20733;-82
2022/07/31 09:23:06;;;;;;;3.33;2.40;;;;;;;26.63;39.33;99837.69;5057322;28;20036;-82
2022/07/31 09:25:33;;;;;;;3.83;2.33;;;;;;;26.72;38.47;99848.59;5039180;28;20060;-82
2022/07/31 09:28:04;;;;;;;4.93;2.20;;;;;;;27.03;38.63;99846.03;5050419;28;20080;-83
2022/07/31 09:30:31;;;;;;;3.95;2.35;;;;;;;27.47;36.70;99844.91;5050365;28;20124;-83
2022/07/31 09:33:17;;;;;;;4.57;2.65;;;;;;;27.35;35.77;99844.41;5056219;28;20151;-83
2022/07/31 09:36:03;;;;;;;3.70;2.45;;;;;;;27.25;35.43;99846.25;5046119;28;20041;-83
2022/07/31 09:38:33;;;;;;;5.70;2.40;;;;;;;26.83;36.84;99854.00;5034803;28;20052;-83
2022/07/31 09:41:19;;;;;;;5.20;2.80;;;;;;;26.67;36.46;99854.41;5061357;28;20040;-82
2022/07/31 09:44:08;;;;;;;5.40;2.72;;;;;;;26.67;36.49;99846.63;5054647;28;20445;-82
2022/07/31 09:46:42;;;;;;;4.85;2.40;;;;;;;26.96;37.54;99852.44;5056030;28;20036;-83
2022/07/31 09:49:08;;;;;;;5.47;2.55;;;;;;;27.00;36.45;99847.16;5043999;28;20032;-82
2022/07/31 09:51:42;;;;;;;7.53;2.70;;;;;;;27.08;37.62;99845.13;5040782;28;20067;-82
2022/07/31 09:54:21;;;;;;;4.50;2.60;;;;;;;27.45;36.30;99853.22;5041562;28;20064;-83
2022/07/31 09:57:11;;;;;;;5.05;2.42;;;;;;;27.53;37.01;99842.66;5059330;28;20469;-88
2022/07/31 09:59:40;;;;;;;4.30;2.70;;;;;;;27.75;36.45;99839.19;5037338;28;20464;-87
2022/07/31 10:02:07;;;;;;;7.70;2.63;;;;;;;27.80;34.53;99832.56;5052995;28;20041;-88
2022/07/31 10:04:37;;;;;;;4.55;2.60;;;;;;;27.53;35.70;99836.22;5069796;28;20051;-88
2022/07/31 10:07:04;;;;;;;3.90;2.42;;;;;;;27.48;35.93;99814.34;5047598;28;20422;-88
2022/07/31 10:09:31;;;;;;;3.95;2.88;;;;;;;27.60;35.41;99836.25;5044040;28;20041;-88
2022/07/31 10:12:16;;;;;;;5.18;2.65;;;;;;;27.41;35.41;99823.56;5046360;28;20055;-88
2022/07/31 10:14:43;;;;;;;4.63;2.60;;;;;;;27.40;35.62;99833.41;5047789;28;20084;-87
2022/07/31 10:17:11;;;;;;;6.32;2.90;;;;;;;27.40;35.42;99822.03;5041972;28;20298;-82
2022/07/31 10:19:46;;;;;;;4.93;2.80;;;;;;;27.89;35.50;99819.88;5068365;28;20055;-82
2022/07/31 10:22:45;;;;;;;3.85;2.50;;;;;;;28.28;35.31;99824.44;5029311;28;20041;-83
2022/07/31 10:25:21;;;;;;;5.75;2.70;;;;;;;28.33;34.17;99837.75;5036675;28;20036;-83
2022/07/31 10:27:48;;;;;;;6.38;2.70;;;;;;;28.12;33.28;99825.69;5049628;28;20043;-82
2022/07/31 10:30:14;;;;;;;4.57;2.80;;;;;;;27.88;34.17;99837.53;5034653;28;20044;-83
2022/07/31 10:32:49;;;;;;;3.67;2.80;;;;;;;27.66;34.87;99816.16;5065583;28;20057;-88
2022/07/31 10:35:51;;;;;;;4.35;2.60;;;;;;;27.90;33.92;99824.28;5030057;28;20426;-83
2022/07/31 10:38:45;;;;;;;4.72;2.70;;;;;;;27.78;35.86;99835.22;5060460;28;20406;-83
2022/07/31 10:41:51;;;;;;;3.42;2.72;;;;;;;27.72;34.39;99826.06;5043850;28;20055;-83
2022/07/31 10:44:22;;;;;;;4.60;3.00;;;;;;;27.60;34.90;99835.50;5047164;28;20097;-83
2022/07/31 10:47:14;;;;;;;4.50;2.90;;;;;;;27.83;35.54;99842.84;5067865;28;20515;-83
2022/07/31 10:49:59;;;;;;;4.97;3.30;;;;;;;27.75;35.88;99832.72;5067940;28;20513;-83
2022/07/31 10:52:30;;;;;;;3.83;2.88;;;;;;;27.96;35.52;99822.00;5062721;28;20125;-83
2022/07/31 10:55:20;;;;;;;4.38;2.80;;;;;;;27.93;34.91;99833.78;5065710;28;20052;-83
2022/07/31 10:58:14;;;;;;;5.70;2.88;;;;;;;27.47;35.51;99822.09;5039851;28;20040;-83
2022/07/31 11:00:50;;;;;;;5.68;2.90;;;;;;;27.32;36.57;99828.44;5055788;28;20070;-83
2022/07/31 11:03:45;;;;;;;12.05;3.10;;;;;;;27.64;35.15;99819.56;5067723;28;20134;-82
2022/07/31 11:06:41;;;;;;;4.93;3.10;;;;;;;28.06;34.49;99823.00;5066954;28;20103;-83
2022/07/31 11:09:36;;;;;;;4.32;2.90;;;;;;;28.14;35.37;99809.56;4994301;28;20043;-89
2022/07/31 11:12:20;;;;;;;4.45;2.80;;;;;;;28.62;34.32;99796.38;5038130;28;20612;-83
2022/07/31 11:15:20;;;;;;;2.97;2.70;;;;;;;28.88;33.91;99811.63;5050318;28;20128;-82
2022/07/31 11:18:17;;;;;;;3.20;2.90;;;;;;;28.60;34.23;99804.72;5033395;28;20049;-83
2022/07/31 11:21:01;;;;;;;4.03;2.75;;;;;;;28.94;33.84;99793.00;5047297;28;20056;-83
2022/07/31 11:23:29;;;;;;;4.95;2.92;;;;;;;29.16;34.24;99791.44;5048850;28;20514;-83
2022/07/31 11:26:02;;;;;;;4.32;2.70;;;;;;;29.11;32.33;99801.00;5046953;28;20029;-82
2022/07/31 11:28:29;;;;;;;4.35;2.88;;;;;;;28.61;32.95;99794.84;5047389;28;20041;-82
2022/07/31 11:31:00;;;;;;;6.22;2.80;;;;;;;28.99;33.13;99783.47;5013744;28;20044;-82
2022/07/31 11:33:39;;;;;;;4.05;2.70;;;;;;;29.08;33.32;99790.69;5055282;28;20126;-82
2022/07/31 11:36:09;;;;;;;3.10;2.55;;;;;;;29.34;32.96;99783.84;5047188;28;20406;-82
2022/07/31 11:38:35;;;;;;;5.90;2.85;;;;;;;29.39;32.20;99786.50;5046698;28;20115;-82
2022/07/31 11:41:01;;;;;;;3.83;2.90;;;;;;;28.96;33.16;99795.25;5052086;28;20041;-82
2022/07/31 11:43:27;;;;;;;4.45;2.85;;;;;;;28.81;32.31;99783.84;5049832;28;20124;-82
2022/07/31 11:45:53;;;;;;;2.85;2.55;;;;;;;29.15;33.16;99772.81;5066669;28;20119;-81
2022/07/31 11:48:20;;;;;;;3.42;2.75;;;;;;;29.14;32.04;99783.47;5049971;28;20421;-82
2022/07/31 11:50:48;;;;;;;4.50;3.00;;;;;;;28.90;32.73;99783.28;5034039;28;20123;-82
2022/07/31 11:53:14;;;;;;;3.10;2.80;;;;;;;29.08;32.47;99765.00;5050177;28;20036;-82
2022/07/31 11:55:45;;;;;;;3.72;2.70;;;;;;;29.07;32.33;99777.78;5050422;28;20033;-82
2022/07/31 11:58:11;;;;;;;5.88;2.67;;;;;;;28.99;32.12;99766.34;5066424;28;20059;-82
2022/07/31 12:00:37;;;;;;;4.75;3.10;;;;;;;28.99;33.72;99777.00;5066615;28;20131;-82
2022/07/31 12:03:02;;;;;;;4.25;3.03;;;;;;;29.07;31.23;99767.09;5066314;28;20048;-82
2022/07/31 12:05:28;;;;;;;7.88;3.58;;;;;;;29.54;32.08;99769.31;5050029;28;20106;-81
2022/07/31 12:07:54;;;;;;;3.13;2.70;;;;;;;29.81;30.56;99778.19;5080616;28;20033;-86
2022/07/31 12:10:20;;;;;;;3.25;2.90;;;;;;;29.76;30.87;99772.69;5045514;28;20458;-87
2022/07/31 12:12:46;;;;;;;7.22;2.90;;;;;;;29.90;33.27;99759.69;5060994;28;20044;-87
2022/07/31 12:15:17;;;;;;;8.13;3.00;;;;;;;29.91;32.55;99766.94;5049578;28;20070;-88
2022/07/31 12:17:43;;;;;;;5.32;2.92;;;;;;;30.01;30.91;99762.88;5033488;28;20049;-87
2022/07/31 12:20:09;;;;;;;6.80;3.00;;;;;;;30.14;30.48;99763.94;5069487;28;20374;-87